< < Back
Terminal Aerodrome Forecast


Current Version              Previous Versions:   1  2  3  4  5  6  7  8  9  

Terminal Aerodrome Forecast

206
FTUS42 KFFC 190500
TAFATL
TAF
KATL 190520Z 1906/2012 04014G24KT 6SM -RA SCT009 BKN015
      TEMPO 1908/1912 BKN009
     FM191200 04018G28KT 6SM -RA BKN015
     FM192200 05014G24KT P6SM BKN020=



Latest METAR

155
SAUS70 KWBC 190700 RRB
MTRATL
METAR KATL 190652Z 03013KT 9SM FEW009 BKN013 OVC060 11/09 A3006 RMK AO2
RAE0559B19E51 SLP181 P0001 T01110094


USA.gov is the U.S. government's official web portal to all federal, state and local government web resources and services.